sensor_id;sensor_type;location;lat;lon;timestamp;P1;durP1;ratioP1;P2;durP2;ratioP2
69856;SDS011;57147;53.582;10.112;2023-11-21T00:01:10;9.38;;;6.47;;
69856;SDS011;57147;53.582;10.112;2023-11-21T00:06:10;9.35;;;6.95;;
69856;SDS011;57147;53.582;10.112;2023-11-21T00:11:13;6.85;;;4.75;;
69856;SDS011;57147;53.582;10.112;2023-11-21T00:16:14;6.95;;;5.13;;
69856;SDS011;57147;53.582;10.112;2023-11-21T00:21:15;7.00;;;4.75;;
69856;SDS011;57147;53.582;10.112;2023-11-21T00:26:18;7.75;;;6.03;;
69856;SDS011;57147;53.582;10.112;2023-11-21T00:31:19;12.60;;;7.60;;
69856;SDS011;57147;53.582;10.112;2023-11-21T00:36:19;12.40;;;6.22;;
69856;SDS011;57147;53.582;10.112;2023-11-21T00:41:24;10.30;;;6.15;;
69856;SDS011;57147;53.582;10.112;2023-11-21T00:46:25;13.95;;;7.55;;
69856;SDS011;57147;53.582;10.112;2023-11-21T00:51:25;14.35;;;9.10;;
69856;SDS011;57147;53.582;10.112;2023-11-21T00:56:29;14.32;;;10.10;;
69856;SDS011;57147;53.582;10.112;2023-11-21T01:01:29;13.27;;;7.40;;
69856;SDS011;57147;53.582;10.112;2023-11-21T01:06:30;15.35;;;8.20;;
69856;SDS011;57147;53.582;10.112;2023-11-21T01:11:34;14.70;;;8.30;;
69856;SDS011;57147;53.582;10.112;2023-11-21T01:16:35;12.07;;;8.90;;
69856;SDS011;57147;53.582;10.112;2023-11-21T01:21:36;13.95;;;8.73;;
69856;SDS011;57147;53.582;10.112;2023-11-21T01:26:39;17.33;;;11.30;;
69856;SDS011;57147;53.582;10.112;2023-11-21T01:31:39;14.80;;;9.77;;
69856;SDS011;57147;53.582;10.112;2023-11-21T01:36:40;9.75;;;6.65;;
69856;SDS011;57147;53.582;10.112;2023-11-21T01:41:43;8.60;;;6.55;;
69856;SDS011;57147;53.582;10.112;2023-11-21T01:46:44;8.32;;;5.97;;
69856;SDS011;57147;53.582;10.112;2023-11-21T01:51:45;7.88;;;6.28;;
69856;SDS011;57147;53.582;10.112;2023-11-21T01:56:51;8.80;;;6.75;;
69856;SDS011;57147;53.582;10.112;2023-11-21T02:01:52;10.55;;;5.50;;
69856;SDS011;57147;53.582;10.112;2023-11-21T02:06:52;7.43;;;5.10;;
69856;SDS011;57147;53.582;10.112;2023-11-21T02:11:56;9.55;;;7.35;;
69856;SDS011;57147;53.582;10.112;2023-11-21T02:16:56;9.30;;;5.68;;
69856;SDS011;57147;53.582;10.112;2023-11-21T02:21:57;7.40;;;5.93;;
69856;SDS011;57147;53.582;10.112;2023-11-21T02:27:02;7.93;;;5.25;;
69856;SDS011;57147;53.582;10.112;2023-11-21T02:32:03;7.15;;;5.90;;
69856;SDS011;57147;53.582;10.112;2023-11-21T02:37:04;6.85;;;5.25;;
69856;SDS011;57147;53.582;10.112;2023-11-21T02:42:07;6.70;;;4.35;;
69856;SDS011;57147;53.582;10.112;2023-11-21T02:47:08;8.20;;;5.60;;
69856;SDS011;57147;53.582;10.112;2023-11-21T02:52:08;9.60;;;5.20;;
69856;SDS011;57147;53.582;10.112;2023-11-21T02:57:11;6.22;;;4.20;;
69856;SDS011;57147;53.582;10.112;2023-11-21T03:02:12;8.55;;;5.95;;
69856;SDS011;57147;53.582;10.112;2023-11-21T03:07:12;7.90;;;5.30;;
69856;SDS011;57147;53.582;10.112;2023-11-21T03:12:16;7.05;;;5.10;;
69856;SDS011;57147;53.582;10.112;2023-11-21T03:17:16;8.15;;;5.28;;
69856;SDS011;57147;53.582;10.112;2023-11-21T03:22:17;7.40;;;6.07;;
69856;SDS011;57147;53.582;10.112;2023-11-21T03:27:20;7.45;;;4.97;;
69856;SDS011;57147;53.582;10.112;2023-11-21T03:32:21;8.30;;;5.50;;
69856;SDS011;57147;53.582;10.112;2023-11-21T03:37:21;8.02;;;5.82;;
69856;SDS011;57147;53.582;10.112;2023-11-21T03:42:25;8.60;;;6.15;;
69856;SDS011;57147;53.582;10.112;2023-11-21T03:47:26;9.13;;;6.63;;
69856;SDS011;57147;53.582;10.112;2023-11-21T03:52:28;6.68;;;5.65;;
69856;SDS011;57147;53.582;10.112;2023-11-21T03:57:31;7.85;;;5.32;;
69856;SDS011;57147;53.582;10.112;2023-11-21T04:02:32;7.38;;;5.40;;
69856;SDS011;57147;53.582;10.112;2023-11-21T04:07:33;7.35;;;5.82;;
69856;SDS011;57147;53.582;10.112;2023-11-21T04:12:36;9.52;;;5.80;;
69856;SDS011;57147;53.582;10.112;2023-11-21T04:17:36;10.27;;;6.88;;
69856;SDS011;57147;53.582;10.112;2023-11-21T04:22:37;9.98;;;5.78;;
69856;SDS011;57147;53.582;10.112;2023-11-21T04:27:41;9.40;;;7.57;;
69856;SDS011;57147;53.582;10.112;2023-11-21T04:32:43;8.95;;;5.97;;
69856;SDS011;57147;53.582;10.112;2023-11-21T04:37:43;8.85;;;6.68;;
69856;SDS011;57147;53.582;10.112;2023-11-21T04:42:47;8.63;;;5.97;;
69856;SDS011;57147;53.582;10.112;2023-11-21T04:47:47;8.40;;;4.90;;
69856;SDS011;57147;53.582;10.112;2023-11-21T04:52:48;8.10;;;5.85;;
69856;SDS011;57147;53.582;10.112;2023-11-21T04:57:51;6.38;;;4.70;;
69856;SDS011;57147;53.582;10.112;2023-11-21T05:02:52;11.25;;;8.15;;
69856;SDS011;57147;53.582;10.112;2023-11-21T05:07:53;12.18;;;8.05;;
69856;SDS011;57147;53.582;10.112;2023-11-21T05:12:56;9.77;;;7.50;;
69856;SDS011;57147;53.582;10.112;2023-11-21T05:17:56;8.40;;;6.53;;
69856;SDS011;57147;53.582;10.112;2023-11-21T05:22:58;7.50;;;5.18;;
69856;SDS011;57147;53.582;10.112;2023-11-21T05:28:01;9.52;;;6.55;;
69856;SDS011;57147;53.582;10.112;2023-11-21T05:33:02;8.27;;;5.85;;
69856;SDS011;57147;53.582;10.112;2023-11-21T05:38:03;8.30;;;5.53;;
69856;SDS011;57147;53.582;10.112;2023-11-21T05:43:06;7.05;;;5.25;;
69856;SDS011;57147;53.582;10.112;2023-11-21T05:48:07;11.52;;;7.63;;
69856;SDS011;57147;53.582;10.112;2023-11-21T05:53:07;10.35;;;7.57;;
69856;SDS011;57147;53.582;10.112;2023-11-21T05:58:10;9.77;;;6.75;;
69856;SDS011;57147;53.582;10.112;2023-11-21T06:03:12;9.20;;;6.97;;
69856;SDS011;57147;53.582;10.112;2023-11-21T06:08:13;8.20;;;5.90;;
69856;SDS011;57147;53.582;10.112;2023-11-21T06:13:17;9.10;;;7.00;;
69856;SDS011;57147;53.582;10.112;2023-11-21T06:18:18;12.32;;;9.43;;
69856;SDS011;57147;53.582;10.112;2023-11-21T06:23:18;12.15;;;8.18;;
69856;SDS011;57147;53.582;10.112;2023-11-21T06:28:21;8.13;;;6.03;;
69856;SDS011;57147;53.582;10.112;2023-11-21T06:33:22;9.80;;;6.30;;
69856;SDS011;57147;53.582;10.112;2023-11-21T06:38:23;9.23;;;6.43;;
69856;SDS011;57147;53.582;10.112;2023-11-21T06:43:26;8.75;;;6.13;;
69856;SDS011;57147;53.582;10.112;2023-11-21T06:48:26;8.57;;;7.07;;
69856;SDS011;57147;53.582;10.112;2023-11-21T06:53:27;10.40;;;7.03;;
69856;SDS011;57147;53.582;10.112;2023-11-21T06:58:30;9.27;;;7.80;;
69856;SDS011;57147;53.582;10.112;2023-11-21T07:03:32;9.82;;;6.53;;
69856;SDS011;57147;53.582;10.112;2023-11-21T07:08:33;8.57;;;6.38;;
69856;SDS011;57147;53.582;10.112;2023-11-21T07:13:36;7.63;;;5.63;;
69856;SDS011;57147;53.582;10.112;2023-11-21T07:18:36;8.10;;;5.70;;
69856;SDS011;57147;53.582;10.112;2023-11-21T07:23:37;8.95;;;6.70;;
69856;SDS011;57147;53.582;10.112;2023-11-21T07:28:41;8.30;;;6.68;;
69856;SDS011;57147;53.582;10.112;2023-11-21T07:33:41;10.05;;;5.20;;
69856;SDS011;57147;53.582;10.112;2023-11-21T07:38:42;7.15;;;5.85;;
69856;SDS011;57147;53.582;10.112;2023-11-21T07:43:45;8.30;;;4.88;;
69856;SDS011;57147;53.582;10.112;2023-11-21T07:48:46;6.88;;;5.88;;
69856;SDS011;57147;53.582;10.112;2023-11-21T07:53:46;6.72;;;4.38;;
69856;SDS011;57147;53.582;10.112;2023-11-21T07:58:50;6.63;;;4.60;;
69856;SDS011;57147;53.582;10.112;2023-11-21T08:03:50;7.18;;;4.72;;
69856;SDS011;57147;53.582;10.112;2023-11-21T08:08:51;6.55;;;5.00;;
69856;SDS011;57147;53.582;10.112;2023-11-21T08:13:54;5.95;;;4.78;;
69856;SDS011;57147;53.582;10.112;2023-11-21T08:18:55;6.90;;;4.82;;
69856;SDS011;57147;53.582;10.112;2023-11-21T08:23:55;6.20;;;4.22;;
69856;SDS011;57147;53.582;10.112;2023-11-21T08:28:58;5.38;;;3.97;;
69856;SDS011;57147;53.582;10.112;2023-11-21T08:33:59;5.22;;;4.00;;
69856;SDS011;57147;53.582;10.112;2023-11-21T08:39:00;5.22;;;4.68;;
69856;SDS011;57147;53.582;10.112;2023-11-21T08:44:03;7.00;;;3.90;;
69856;SDS011;57147;53.582;10.112;2023-11-21T08:49:04;5.25;;;4.15;;
69856;SDS011;57147;53.582;10.112;2023-11-21T08:54:04;7.15;;;5.53;;
69856;SDS011;57147;53.582;10.112;2023-11-21T08:59:08;6.72;;;5.05;;
69856;SDS011;57147;53.582;10.112;2023-11-21T09:04:09;5.80;;;3.67;;
69856;SDS011;57147;53.582;10.112;2023-11-21T09:09:09;5.88;;;3.75;;
69856;SDS011;57147;53.582;10.112;2023-11-21T09:14:12;4.93;;;3.17;;
69856;SDS011;57147;53.582;10.112;2023-11-21T09:19:13;5.03;;;3.20;;
69856;SDS011;57147;53.582;10.112;2023-11-21T09:24:13;4.13;;;3.17;;
69856;SDS011;57147;53.582;10.112;2023-11-21T09:29:17;4.15;;;3.45;;
69856;SDS011;57147;53.582;10.112;2023-11-21T09:34:17;4.40;;;3.28;;
69856;SDS011;57147;53.582;10.112;2023-11-21T09:39:18;5.30;;;2.38;;
69856;SDS011;57147;53.582;10.112;2023-11-21T09:44:23;3.67;;;2.38;;
69856;SDS011;57147;53.582;10.112;2023-11-21T09:49:29;3.60;;;2.63;;
69856;SDS011;57147;53.582;10.112;2023-11-21T09:54:33;3.85;;;2.60;;
69856;SDS011;57147;53.582;10.112;2023-11-21T09:59:38;4.03;;;2.97;;
69856;SDS011;57147;53.582;10.112;2023-11-21T10:04:38;3.92;;;3.20;;
69856;SDS011;57147;53.582;10.112;2023-11-21T10:09:39;4.32;;;3.42;;
69856;SDS011;57147;53.582;10.112;2023-11-21T10:14:43;5.40;;;2.90;;
69856;SDS011;57147;53.582;10.112;2023-11-21T10:19:47;3.67;;;3.38;;
69856;SDS011;57147;53.582;10.112;2023-11-21T10:24:49;3.97;;;2.33;;
69856;SDS011;57147;53.582;10.112;2023-11-21T10:29:53;3.33;;;2.80;;
69856;SDS011;57147;53.582;10.112;2023-11-21T10:34:57;3.88;;;3.28;;
69856;SDS011;57147;53.582;10.112;2023-11-21T10:39:57;3.55;;;2.58;;
69856;SDS011;57147;53.582;10.112;2023-11-21T10:45:01;2.88;;;2.30;;
69856;SDS011;57147;53.582;10.112;2023-11-21T10:50:04;3.40;;;2.85;;
69856;SDS011;57147;53.582;10.112;2023-11-21T10:55:15;5.38;;;3.35;;
69856;SDS011;57147;53.582;10.112;2023-11-21T11:00:19;5.05;;;4.55;;
69856;SDS011;57147;53.582;10.112;2023-11-21T11:05:20;3.67;;;2.63;;
69856;SDS011;57147;53.582;10.112;2023-11-21T11:10:22;5.07;;;4.13;;
69856;SDS011;57147;53.582;10.112;2023-11-21T11:15:25;3.35;;;2.65;;
69856;SDS011;57147;53.582;10.112;2023-11-21T11:20:32;4.20;;;3.10;;
69856;SDS011;57147;53.582;10.112;2023-11-21T11:25:44;2.85;;;2.08;;
69856;SDS011;57147;53.582;10.112;2023-11-21T11:30:57;3.95;;;2.75;;
69856;SDS011;57147;53.582;10.112;2023-11-21T11:36:05;2.78;;;2.15;;
69856;SDS011;57147;53.582;10.112;2023-11-21T11:41:10;3.30;;;2.88;;
69856;SDS011;57147;53.582;10.112;2023-11-21T11:46:14;4.07;;;2.60;;
69856;SDS011;57147;53.582;10.112;2023-11-21T11:51:14;3.17;;;2.88;;
69856;SDS011;57147;53.582;10.112;2023-11-21T11:56:22;4.80;;;2.53;;
69856;SDS011;57147;53.582;10.112;2023-11-21T12:01:27;3.78;;;3.22;;
69856;SDS011;57147;53.582;10.112;2023-11-21T12:06:32;4.70;;;2.88;;
69856;SDS011;57147;53.582;10.112;2023-11-21T12:11:33;3.05;;;1.83;;
69856;SDS011;57147;53.582;10.112;2023-11-21T12:16:39;3.63;;;2.03;;
69856;SDS011;57147;53.582;10.112;2023-11-21T12:21:40;3.72;;;2.08;;
69856;SDS011;57147;53.582;10.112;2023-11-21T12:26:41;4.38;;;3.97;;
69856;SDS011;57147;53.582;10.112;2023-11-21T12:31:44;2.88;;;2.28;;
69856;SDS011;57147;53.582;10.112;2023-11-21T12:36:45;5.60;;;5.03;;
69856;SDS011;57147;53.582;10.112;2023-11-21T12:41:46;3.53;;;3.00;;
69856;SDS011;57147;53.582;10.112;2023-11-21T12:46:49;5.03;;;3.72;;
69856;SDS011;57147;53.582;10.112;2023-11-21T12:51:50;4.30;;;3.45;;
69856;SDS011;57147;53.582;10.112;2023-11-21T12:56:51;3.38;;;2.42;;
69856;SDS011;57147;53.582;10.112;2023-11-21T13:01:54;2.97;;;2.63;;
69856;SDS011;57147;53.582;10.112;2023-11-21T13:06:54;3.63;;;2.83;;
69856;SDS011;57147;53.582;10.112;2023-11-21T13:11:59;5.32;;;3.42;;
69856;SDS011;57147;53.582;10.112;2023-11-21T13:22:06;3.17;;;2.10;;
69856;SDS011;57147;53.582;10.112;2023-11-21T13:27:06;4.13;;;2.60;;
69856;SDS011;57147;53.582;10.112;2023-11-21T13:32:10;2.85;;;2.50;;
69856;SDS011;57147;53.582;10.112;2023-11-21T13:37:10;3.10;;;2.75;;
69856;SDS011;57147;53.582;10.112;2023-11-21T13:42:11;3.72;;;2.47;;
69856;SDS011;57147;53.582;10.112;2023-11-21T13:47:14;3.33;;;2.25;;
69856;SDS011;57147;53.582;10.112;2023-11-21T13:52:15;4.82;;;4.10;;
69856;SDS011;57147;53.582;10.112;2023-11-21T13:57:15;3.17;;;2.83;;
69856;SDS011;57147;53.582;10.112;2023-11-21T14:02:19;3.25;;;2.55;;
69856;SDS011;57147;53.582;10.112;2023-11-21T14:07:20;4.93;;;3.10;;
69856;SDS011;57147;53.582;10.112;2023-11-21T14:12:20;3.65;;;3.35;;
69856;SDS011;57147;53.582;10.112;2023-11-21T14:17:24;3.90;;;3.13;;
69856;SDS011;57147;53.582;10.112;2023-11-21T14:22:24;4.18;;;3.53;;
69856;SDS011;57147;53.582;10.112;2023-11-21T14:27:25;3.75;;;2.20;;
69856;SDS011;57147;53.582;10.112;2023-11-21T14:32:28;4.50;;;2.47;;
69856;SDS011;57147;53.582;10.112;2023-11-21T14:37:29;2.67;;;1.98;;
69856;SDS011;57147;53.582;10.112;2023-11-21T14:42:30;4.13;;;3.05;;
69856;SDS011;57147;53.582;10.112;2023-11-21T14:47:33;4.53;;;2.65;;
69856;SDS011;57147;53.582;10.112;2023-11-21T14:52:34;3.28;;;1.60;;
69856;SDS011;57147;53.582;10.112;2023-11-21T14:57:35;2.15;;;1.75;;
69856;SDS011;57147;53.582;10.112;2023-11-21T15:02:38;2.25;;;1.80;;
69856;SDS011;57147;53.582;10.112;2023-11-21T15:07:39;3.17;;;1.95;;
69856;SDS011;57147;53.582;10.112;2023-11-21T15:12:39;2.85;;;2.20;;
69856;SDS011;57147;53.582;10.112;2023-11-21T15:17:43;3.15;;;2.38;;
69856;SDS011;57147;53.582;10.112;2023-11-21T15:22:43;4.72;;;3.08;;
69856;SDS011;57147;53.582;10.112;2023-11-21T15:27:44;3.38;;;2.83;;
69856;SDS011;57147;53.582;10.112;2023-11-21T15:32:47;2.80;;;1.98;;
69856;SDS011;57147;53.582;10.112;2023-11-21T15:37:48;7.80;;;5.68;;
69856;SDS011;57147;53.582;10.112;2023-11-21T15:42:48;3.17;;;2.80;;
69856;SDS011;57147;53.582;10.112;2023-11-21T15:47:53;3.50;;;2.17;;
69856;SDS011;57147;53.582;10.112;2023-11-21T15:52:53;3.90;;;3.05;;
69856;SDS011;57147;53.582;10.112;2023-11-21T15:57:54;3.83;;;1.98;;
69856;SDS011;57147;53.582;10.112;2023-11-21T16:02:57;3.10;;;2.63;;
69856;SDS011;57147;53.582;10.112;2023-11-21T16:07:58;3.08;;;2.58;;
69856;SDS011;57147;53.582;10.112;2023-11-21T16:12:58;2.95;;;1.80;;
69856;SDS011;57147;53.582;10.112;2023-11-21T16:18:01;3.22;;;2.75;;
69856;SDS011;57147;53.582;10.112;2023-11-21T16:23:03;4.70;;;3.22;;
69856;SDS011;57147;53.582;10.112;2023-11-21T16:28:03;3.35;;;2.22;;
69856;SDS011;57147;53.582;10.112;2023-11-21T16:33:06;4.65;;;2.80;;
69856;SDS011;57147;53.582;10.112;2023-11-21T16:38:07;3.53;;;2.88;;
69856;SDS011;57147;53.582;10.112;2023-11-21T16:43:08;5.75;;;2.78;;
69856;SDS011;57147;53.582;10.112;2023-11-21T16:48:12;4.75;;;3.42;;
69856;SDS011;57147;53.582;10.112;2023-11-21T16:53:13;6.30;;;2.45;;
69856;SDS011;57147;53.582;10.112;2023-11-21T16:58:14;25.50;;;18.60;;
69856;SDS011;57147;53.582;10.112;2023-11-21T17:03:17;3.28;;;2.50;;
69856;SDS011;57147;53.582;10.112;2023-11-21T17:08:17;2.47;;;1.92;;
69856;SDS011;57147;53.582;10.112;2023-11-21T17:13:18;3.67;;;2.33;;
69856;SDS011;57147;53.582;10.112;2023-11-21T17:18:21;2.30;;;2.10;;
69856;SDS011;57147;53.582;10.112;2023-11-21T17:23:22;3.13;;;2.47;;
69856;SDS011;57147;53.582;10.112;2023-11-21T17:28:22;3.45;;;3.15;;
69856;SDS011;57147;53.582;10.112;2023-11-21T17:33:26;2.20;;;2.00;;
69856;SDS011;57147;53.582;10.112;2023-11-21T17:38:26;2.78;;;2.03;;
69856;SDS011;57147;53.582;10.112;2023-11-21T17:43:27;2.40;;;2.20;;
69856;SDS011;57147;53.582;10.112;2023-11-21T17:48:30;2.30;;;2.10;;
69856;SDS011;57147;53.582;10.112;2023-11-21T17:53:31;3.35;;;2.65;;
69856;SDS011;57147;53.582;10.112;2023-11-21T17:58:33;3.28;;;2.17;;
69856;SDS011;57147;53.582;10.112;2023-11-21T18:03:38;2.35;;;2.10;;
69856;SDS011;57147;53.582;10.112;2023-11-21T18:08:38;1.80;;;1.48;;
69856;SDS011;57147;53.582;10.112;2023-11-21T18:13:39;3.47;;;3.17;;
69856;SDS011;57147;53.582;10.112;2023-11-21T18:18:42;4.20;;;2.72;;
69856;SDS011;57147;53.582;10.112;2023-11-21T18:23:43;3.67;;;2.83;;
69856;SDS011;57147;53.582;10.112;2023-11-21T18:28:44;3.83;;;2.45;;
69856;SDS011;57147;53.582;10.112;2023-11-21T18:33:47;3.90;;;3.47;;
69856;SDS011;57147;53.582;10.112;2023-11-21T18:38:47;3.72;;;3.00;;
69856;SDS011;57147;53.582;10.112;2023-11-21T18:43:48;2.80;;;2.05;;
69856;SDS011;57147;53.582;10.112;2023-11-21T18:48:51;4.68;;;2.83;;
69856;SDS011;57147;53.582;10.112;2023-11-21T18:53:52;4.43;;;3.03;;
69856;SDS011;57147;53.582;10.112;2023-11-21T18:58:53;4.45;;;2.33;;
69856;SDS011;57147;53.582;10.112;2023-11-21T19:03:56;3.45;;;3.08;;
69856;SDS011;57147;53.582;10.112;2023-11-21T19:08:57;3.65;;;2.83;;
69856;SDS011;57147;53.582;10.112;2023-11-21T19:13:57;5.78;;;3.65;;
69856;SDS011;57147;53.582;10.112;2023-11-21T19:19:00;3.38;;;1.70;;
69856;SDS011;57147;53.582;10.112;2023-11-21T19:24:01;3.80;;;2.47;;
69856;SDS011;57147;53.582;10.112;2023-11-21T19:29:02;3.78;;;2.50;;
69856;SDS011;57147;53.582;10.112;2023-11-21T19:34:05;4.25;;;3.08;;
69856;SDS011;57147;53.582;10.112;2023-11-21T19:39:06;4.00;;;2.75;;
69856;SDS011;57147;53.582;10.112;2023-11-21T19:44:06;4.47;;;3.10;;
69856;SDS011;57147;53.582;10.112;2023-11-21T19:49:10;4.32;;;3.88;;
69856;SDS011;57147;53.582;10.112;2023-11-21T19:54:10;5.38;;;3.67;;
69856;SDS011;57147;53.582;10.112;2023-11-21T19:59:11;4.68;;;3.33;;
69856;SDS011;57147;53.582;10.112;2023-11-21T20:04:14;4.57;;;2.30;;
69856;SDS011;57147;53.582;10.112;2023-11-21T20:09:15;3.47;;;2.97;;
69856;SDS011;57147;53.582;10.112;2023-11-21T20:14:15;6.10;;;4.07;;
69856;SDS011;57147;53.582;10.112;2023-11-21T20:19:19;4.90;;;3.00;;
69856;SDS011;57147;53.582;10.112;2023-11-21T20:24:19;5.47;;;3.40;;
69856;SDS011;57147;53.582;10.112;2023-11-21T20:29:20;4.60;;;2.97;;
69856;SDS011;57147;53.582;10.112;2023-11-21T20:34:23;2.85;;;2.05;;
69856;SDS011;57147;53.582;10.112;2023-11-21T20:39:24;4.65;;;2.72;;
69856;SDS011;57147;53.582;10.112;2023-11-21T20:44:25;5.03;;;4.28;;
69856;SDS011;57147;53.582;10.112;2023-11-21T20:49:28;4.30;;;2.90;;
69856;SDS011;57147;53.582;10.112;2023-11-21T20:54:28;2.75;;;2.10;;
69856;SDS011;57147;53.582;10.112;2023-11-21T20:59:29;2.63;;;2.05;;
69856;SDS011;57147;53.582;10.112;2023-11-21T21:04:32;4.45;;;3.08;;
69856;SDS011;57147;53.582;10.112;2023-11-21T21:09:33;4.13;;;2.42;;
69856;SDS011;57147;53.582;10.112;2023-11-21T21:14:34;3.63;;;3.03;;
69856;SDS011;57147;53.582;10.112;2023-11-21T21:19:37;4.32;;;2.40;;
69856;SDS011;57147;53.582;10.112;2023-11-21T21:24:38;4.03;;;3.38;;
69856;SDS011;57147;53.582;10.112;2023-11-21T21:29:39;4.13;;;2.72;;
69856;SDS011;57147;53.582;10.112;2023-11-21T21:34:45;6.18;;;4.30;;
69856;SDS011;57147;53.582;10.112;2023-11-21T21:39:45;3.03;;;2.28;;
69856;SDS011;57147;53.582;10.112;2023-11-21T21:44:46;3.17;;;2.45;;
69856;SDS011;57147;53.582;10.112;2023-11-21T21:49:49;3.13;;;2.83;;
69856;SDS011;57147;53.582;10.112;2023-11-21T21:54:50;3.15;;;2.60;;
69856;SDS011;57147;53.582;10.112;2023-11-21T21:59:50;3.97;;;2.85;;
69856;SDS011;57147;53.582;10.112;2023-11-21T22:04:54;3.90;;;3.47;;
69856;SDS011;57147;53.582;10.112;2023-11-21T22:09:54;4.93;;;2.85;;
69856;SDS011;57147;53.582;10.112;2023-11-21T22:14:55;7.38;;;3.28;;
69856;SDS011;57147;53.582;10.112;2023-11-21T22:19:58;6.35;;;3.70;;
69856;SDS011;57147;53.582;10.112;2023-11-21T22:24:59;5.90;;;5.35;;
69856;SDS011;57147;53.582;10.112;2023-11-21T22:29:59;5.45;;;3.42;;
69856;SDS011;57147;53.582;10.112;2023-11-21T22:35:03;4.45;;;2.97;;
69856;SDS011;57147;53.582;10.112;2023-11-21T22:40:05;3.95;;;2.65;;
69856;SDS011;57147;53.582;10.112;2023-11-21T22:45:09;3.92;;;3.08;;
69856;SDS011;57147;53.582;10.112;2023-11-21T22:50:13;5.22;;;4.18;;
69856;SDS011;57147;53.582;10.112;2023-11-21T22:55:14;4.47;;;2.95;;
69856;SDS011;57147;53.582;10.112;2023-11-21T23:00:18;4.70;;;3.22;;
69856;SDS011;57147;53.582;10.112;2023-11-21T23:05:21;5.00;;;3.55;;
69856;SDS011;57147;53.582;10.112;2023-11-21T23:10:22;4.07;;;2.90;;
69856;SDS011;57147;53.582;10.112;2023-11-21T23:15:23;4.82;;;3.60;;
69856;SDS011;57147;53.582;10.112;2023-11-21T23:20:26;4.75;;;3.75;;
69856;SDS011;57147;53.582;10.112;2023-11-21T23:25:30;4.15;;;2.33;;
69856;SDS011;57147;53.582;10.112;2023-11-21T23:30:31;5.03;;;2.42;;
69856;SDS011;57147;53.582;10.112;2023-11-21T23:35:34;5.30;;;3.92;;
69856;SDS011;57147;53.582;10.112;2023-11-21T23:40:35;5.28;;;3.40;;
69856;SDS011;57147;53.582;10.112;2023-11-21T23:45:35;4.45;;;3.65;;
69856;SDS011;57147;53.582;10.112;2023-11-21T23:50:39;6.45;;;4.07;;
69856;SDS011;57147;53.582;10.112;2023-11-21T23:55:39;5.88;;;3.35;;
